Time;durP1;ratioP1;P1;durP2;ratioP2;P2;SDS_P1;SDS_P2;PMS_P1;PMS_P2;Temp;Humidity;BMP_temperature;BMP_pressure;BME280_temperature;BME280_humidity;BME280_pressure;Samples;Min_cycle;Max_cycle;Signal;HPM_P1;HPM_P2
2021/12/14 00:01:34;;;;;;;14.55;10.25;;;4.10;99.90;;;;;;4905268;29;20058;-84
2021/12/14 00:04:10;;;;;;;14.55;8.57;;;4.10;99.90;;;;;;4879852;29;20504;-84
2021/12/14 00:06:39;;;;;;;16.75;9.10;;;4.10;99.90;;;;;;4892715;29;20045;-84
2021/12/14 00:09:10;;;;;;;17.00;8.05;;;4.10;99.90;;;;;;4891184;29;20056;-84
2021/12/14 00:16:50;;;;;;;10.40;6.25;;;4.10;99.90;;;;;;4890905;29;20032;-83
2021/12/14 00:19:19;;;;;;;7.05;5.28;;;4.10;99.90;;;;;;4889425;29;20036;-83
2021/12/14 00:21:52;;;;;;;7.32;5.35;;;4.10;99.90;;;;;;4884904;29;20540;-83
2021/12/14 00:24:23;;;;;;;4.95;4.07;;;4.20;99.90;;;;;;4888454;29;20061;-83
2021/12/14 00:27:05;;;;;;;6.72;4.22;;;4.20;99.90;;;;;;4890807;29;20075;-83
2021/12/14 00:29:43;;;;;;;5.35;3.85;;;4.20;99.90;;;;;;4888765;29;20059;-83
2021/12/14 00:32:18;;;;;;;3.58;2.88;;;4.20;99.90;;;;;;4887828;29;20041;-83
2021/12/14 00:34:48;;;;;;;5.18;2.63;;;4.20;99.90;;;;;;4889973;29;20044;-83
2021/12/14 00:37:20;;;;;;;5.68;2.85;;;4.20;99.90;;;;;;4890736;29;20131;-83
2021/12/14 00:39:49;;;;;;;2.22;1.67;;;4.20;99.90;;;;;;4888934;29;20037;-83
2021/12/14 00:42:17;;;;;;;2.60;1.83;;;4.20;99.90;;;;;;4903008;29;20040;-83
2021/12/14 00:44:46;;;;;;;1.70;1.60;;;4.20;99.90;;;;;;4903362;29;20152;-83
2021/12/14 00:47:14;;;;;;;1.75;1.48;;;4.20;99.90;;;;;;4895086;29;20051;-83
2021/12/14 00:49:41;;;;;;;1.80;1.52;;;4.20;99.90;;;;;;4893804;29;20059;-83
2021/12/14 00:52:10;;;;;;;4.40;1.42;;;4.30;99.90;;;;;;4888590;29;20048;-83
2021/12/14 00:54:39;;;;;;;1.42;0.95;;;4.30;99.90;;;;;;4887359;29;20096;-83
2021/12/14 00:57:08;;;;;;;1.33;1.23;;;4.30;99.90;;;;;;4891931;29;20444;-83
2021/12/14 00:59:36;;;;;;;1.55;1.40;;;4.40;99.90;;;;;;4888119;29;20051;-83
2021/12/14 01:02:17;;;;;;;0.82;0.80;;;4.40;99.90;;;;;;4898999;29;20045;-83
2021/12/14 01:05:09;;;;;;;1.38;1.27;;;4.30;99.90;;;;;;4905672;29;20104;-83
2021/12/14 01:07:36;;;;;;;1.33;0.88;;;4.30;99.90;;;;;;4881261;29;20103;-83
2021/12/14 01:10:13;;;;;;;3.45;1.33;;;4.40;99.90;;;;;;4901835;29;20525;-83
2021/12/14 01:12:51;;;;;;;4.38;1.75;;;4.40;99.90;;;;;;4903596;29;20505;-82
2021/12/14 01:15:29;;;;;;;1.02;0.93;;;4.40;99.90;;;;;;4900615;29;20502;-82
2021/12/14 01:18:14;;;;;;;1.65;1.45;;;4.40;99.90;;;;;;4890889;29;20044;-82
2021/12/14 01:20:46;;;;;;;1.40;1.25;;;4.40;99.90;;;;;;4886482;29;20131;-83
2021/12/14 01:23:25;;;;;;;2.63;2.05;;;4.50;99.90;;;;;;4885218;29;20131;-82
2021/12/14 01:25:54;;;;;;;1.83;1.60;;;4.50;99.90;;;;;;4895652;29;20049;-83
2021/12/14 01:28:26;;;;;;;4.13;2.25;;;4.60;99.90;;;;;;4902257;29;20434;-82
2021/12/14 01:31:11;;;;;;;3.72;2.75;;;4.60;99.90;;;;;;4905350;29;20045;-83
2021/12/14 01:33:41;;;;;;;3.15;2.45;;;4.60;99.90;;;;;;4888997;29;20056;-83
2021/12/14 01:36:23;;;;;;;2.75;1.60;;;4.60;99.90;;;;;;4872798;29;20053;-83
2021/12/14 01:41:41;;;;;;;2.90;2.40;;;4.60;99.90;;;;;;4902534;29;20063;-82
2021/12/14 01:44:09;;;;;;;2.42;1.88;;;4.70;99.90;;;;;;4883739;29;20051;-82
2021/12/14 01:46:53;;;;;;;1.98;1.75;;;4.70;99.90;;;;;;4895083;29;20470;-82
2021/12/14 01:49:53;;;;;;;1.98;1.77;;;4.70;99.90;;;;;;4867192;29;20505;-82
2021/12/14 01:52:38;;;;;;;1.60;1.50;;;4.70;99.90;;;;;;4880996;29;20055;-83
2021/12/14 01:55:21;;;;;;;1.75;1.58;;;4.70;99.90;;;;;;4888381;29;20103;-82
2021/12/14 01:57:48;;;;;;;5.05;2.25;;;4.70;99.90;;;;;;4889353;29;20724;-83
2021/12/14 02:00:26;;;;;;;1.85;1.75;;;4.70;99.90;;;;;;4886208;29;20087;-84
2021/12/14 02:02:53;;;;;;;1.77;1.60;;;4.80;99.90;;;;;;4885862;29;20048;-84
2021/12/14 02:05:36;;;;;;;3.45;2.15;;;4.80;99.90;;;;;;4882248;29;20120;-84
2021/12/14 02:08:16;;;;;;;2.13;1.15;;;4.80;99.90;;;;;;4888847;29;20095;-84
2021/12/14 02:10:47;;;;;;;1.60;1.40;;;4.80;99.90;;;;;;4885136;29;20048;-84
2021/12/14 02:13:24;;;;;;;1.50;1.25;;;4.90;99.90;;;;;;4883431;29;20049;-84
2021/12/14 02:15:52;;;;;;;2.00;1.38;;;4.90;99.90;;;;;;4901313;29;20549;-83
2021/12/14 02:18:25;;;;;;;3.95;1.50;;;4.90;99.90;;;;;;4903626;29;20037;-84
2021/12/14 02:21:03;;;;;;;1.80;1.35;;;5.00;99.90;;;;;;4885846;29;20041;-84
2021/12/14 02:23:32;;;;;;;2.47;1.77;;;5.00;99.90;;;;;;4905964;29;20561;-84
2021/12/14 02:26:03;;;;;;;1.88;1.58;;;4.90;99.90;;;;;;4902562;29;20041;-84
2021/12/14 02:28:30;;;;;;;2.72;1.25;;;4.90;99.90;;;;;;4909735;29;20495;-84
2021/12/14 02:31:00;;;;;;;0.90;0.88;;;4.90;99.90;;;;;;4881652;29;20641;-84
2021/12/14 02:33:33;;;;;;;1.63;1.15;;;4.90;99.90;;;;;;4885961;29;20103;-84
2021/12/14 02:36:06;;;;;;;1.85;1.70;;;5.00;99.90;;;;;;4905321;29;20240;-85
2021/12/14 02:38:38;;;;;;;0.90;0.73;;;4.90;99.90;;;;;;4887174;29;20135;-84
2021/12/14 02:41:07;;;;;;;1.88;0.65;;;5.00;99.90;;;;;;4878266;29;20063;-85
2021/12/14 02:43:54;;;;;;;1.10;0.55;;;5.10;99.90;;;;;;4903533;29;20064;-84
2021/12/14 02:46:35;;;;;;;1.85;0.70;;;5.10;99.90;;;;;;4889902;29;20052;-84
2021/12/14 02:49:09;;;;;;;0.57;0.57;;;5.10;99.90;;;;;;4902847;29;20057;-85
2021/12/14 02:51:43;;;;;;;0.98;0.70;;;5.10;99.90;;;;;;4885147;29;20109;-85
2021/12/14 02:54:16;;;;;;;1.70;1.40;;;5.10;99.90;;;;;;4883663;29;20494;-85
2021/12/14 02:56:50;;;;;;;2.85;2.55;;;5.10;99.90;;;;;;4887679;29;20561;-85
2021/12/14 02:59:24;;;;;;;3.22;2.35;;;5.10;99.90;;;;;;4886810;29;20068;-85
2021/12/14 03:01:54;;;;;;;2.72;2.20;;;5.10;99.90;;;;;;4898890;29;20119;-84
2021/12/14 03:04:22;;;;;;;3.72;3.33;;;5.20;99.90;;;;;;4885831;29;20064;-84
2021/12/14 03:06:55;;;;;;;5.10;2.97;;;5.20;99.90;;;;;;4903341;29;20052;-85
2021/12/14 03:09:41;;;;;;;4.07;3.05;;;5.20;99.90;;;;;;4890033;29;20040;-85
2021/12/14 03:12:16;;;;;;;5.22;3.55;;;5.20;99.90;;;;;;4908499;29;20077;-85
2021/12/14 03:14:54;;;;;;;4.25;3.83;;;5.20;99.90;;;;;;4889164;29;20079;-85
2021/12/14 03:17:22;;;;;;;3.65;3.05;;;5.20;99.90;;;;;;4887942;29;20057;-85
2021/12/14 03:19:55;;;;;;;3.42;2.53;;;5.20;99.90;;;;;;4910427;29;20044;-85
2021/12/14 03:22:30;;;;;;;6.57;3.97;;;5.20;99.90;;;;;;4891399;29;20048;-85
2021/12/14 03:24:59;;;;;;;5.55;3.88;;;5.20;99.90;;;;;;4887405;29;20044;-85
2021/12/14 03:27:26;;;;;;;7.85;4.25;;;5.20;99.90;;;;;;4887639;29;20052;-85
2021/12/14 03:29:54;;;;;;;10.80;5.07;;;5.20;99.90;;;;;;4887874;29;20048;-85
2021/12/14 03:32:23;;;;;;;6.40;4.88;;;5.20;99.90;;;;;;4906451;29;20052;-84
2021/12/14 03:34:50;;;;;;;7.82;5.53;;;5.20;99.90;;;;;;4889541;29;20132;-84
2021/12/14 03:37:23;;;;;;;6.55;5.32;;;5.20;99.90;;;;;;4904982;29;20084;-84
2021/12/14 03:40:00;;;;;;;10.40;5.88;;;5.20;99.90;;;;;;4886226;29;20685;-84
2021/12/14 03:42:36;;;;;;;7.20;5.35;;;5.30;99.90;;;;;;4892026;29;20061;-83
2021/12/14 03:45:17;;;;;;;6.95;5.78;;;5.30;99.90;;;;;;4888261;29;20085;-84
2021/12/14 03:47:52;;;;;;;8.32;5.75;;;5.30;99.90;;;;;;4891018;29;20057;-84
2021/12/14 03:50:28;;;;;;;10.98;6.03;;;5.30;99.90;;;;;;4905477;29;20075;-83
2021/12/14 03:52:58;;;;;;;8.18;6.15;;;5.30;99.90;;;;;;4907716;29;20709;-83
2021/12/14 03:55:40;;;;;;;9.48;7.13;;;5.30;99.90;;;;;;4881758;29;20431;-83
2021/12/14 03:58:13;;;;;;;7.95;7.20;;;5.30;99.90;;;;;;4890716;29;20071;-84
2021/12/14 04:00:48;;;;;;;8.50;6.68;;;5.30;99.90;;;;;;4890767;29;20049;-83
2021/12/14 04:03:19;;;;;;;10.43;6.47;;;5.30;99.90;;;;;;4891077;29;20218;-83
2021/12/14 04:06:02;;;;;;;15.05;7.20;;;5.30;99.90;;;;;;4889018;29;20053;-83
2021/12/14 04:08:30;;;;;;;8.90;6.35;;;5.30;99.90;;;;;;4909227;29;20049;-83
2021/12/14 04:11:02;;;;;;;12.27;7.90;;;5.20;99.90;;;;;;4892196;29;20050;-83
2021/12/14 04:13:33;;;;;;;9.05;6.95;;;5.30;99.90;;;;;;4906259;29;20080;-83
2021/12/14 04:16:03;;;;;;;8.00;6.20;;;5.30;99.90;;;;;;4890989;29;20068;-83
2021/12/14 04:18:30;;;;;;;9.40;6.32;;;5.30;99.90;;;;;;4887343;29;20056;-83
2021/12/14 04:21:00;;;;;;;8.15;7.30;;;5.30;99.90;;;;;;4890178;29;20076;-83
2021/12/14 04:23:33;;;;;;;12.60;5.88;;;5.30;99.90;;;;;;4873846;29;20566;-83
2021/12/14 04:26:04;;;;;;;9.68;6.95;;;5.30;99.90;;;;;;4890412;29;20056;-83
2021/12/14 04:28:40;;;;;;;12.55;6.95;;;5.20;99.90;;;;;;4892922;29;20088;-83
2021/12/14 04:31:08;;;;;;;10.50;8.13;;;5.30;99.90;;;;;;4874713;29;20060;-83
2021/12/14 04:33:40;;;;;;;11.55;7.95;;;5.20;99.90;;;;;;4889117;29;20045;-83
2021/12/14 04:36:11;;;;;;;14.10;8.43;;;5.20;99.90;;;;;;4906062;29;20538;-83
2021/12/14 04:38:49;;;;;;;18.90;8.43;;;5.20;99.90;;;;;;4892198;29;20066;-83
2021/12/14 04:52:30;;;;;;;12.02;7.97;;;5.10;99.90;;;;;;4890211;29;20069;-83
2021/12/14 04:55:07;;;;;;;12.75;8.40;;;5.10;99.90;;;;;;4888656;29;20064;-82
2021/12/14 04:57:43;;;;;;;12.05;8.38;;;5.10;99.90;;;;;;4904875;29;20100;-82
2021/12/14 05:00:29;;;;;;;12.52;8.63;;;5.10;99.90;;;;;;4888461;29;20047;-83
2021/12/14 05:03:38;;;;;;;10.43;7.72;;;5.10;99.90;;;;;;4905504;29;20534;-82
2021/12/14 05:06:18;;;;;;;11.25;7.85;;;5.10;99.90;;;;;;4886783;29;20064;-83
2021/12/14 05:11:22;;;;;;;12.25;8.40;;;5.10;99.90;;;;;;4901319;29;20443;-83
2021/12/14 05:13:58;;;;;;;8.30;6.90;;;5.10;99.90;;;;;;4905715;29;20144;-83
2021/12/14 05:16:32;;;;;;;;;;;5.10;99.90;;;;;;4900107;29;20052;-83
2021/12/14 05:19:24;;;;;;;12.70;7.18;;;5.10;99.90;;;;;;4904966;29;20409;-82
2021/12/14 05:21:53;;;;;;;10.52;7.70;;;5.10;99.90;;;;;;4905996;29;20559;-82
2021/12/14 05:24:23;;;;;;;12.63;8.55;;;5.10;99.90;;;;;;4884571;29;20045;-83
2021/12/14 05:27:07;;;;;;;14.68;8.15;;;5.10;99.90;;;;;;4888758;29;20494;-82
2021/12/14 05:29:40;;;;;;;13.48;10.65;;;5.10;99.90;;;;;;4903147;29;20510;-83
2021/12/14 05:32:10;;;;;;;15.13;8.80;;;5.10;99.90;;;;;;4894490;29;20088;-83
2021/12/14 05:34:41;;;;;;;19.65;11.90;;;5.10;99.90;;;;;;4889841;29;20044;-83
2021/12/14 05:37:11;;;;;;;18.15;9.25;;;5.10;99.90;;;;;;4905483;29;20081;-83
2021/12/14 05:45:32;;;;;;;11.30;8.07;;;5.10;99.90;;;;;;4880093;29;20044;-83
2021/12/14 05:48:00;;;;;;;13.90;9.35;;;5.10;99.90;;;;;;4906044;29;20051;-83
2021/12/14 05:50:43;;;;;;;13.43;8.18;;;5.10;99.90;;;;;;4870897;29;20087;-83
2021/12/14 05:53:23;;;;;;;12.30;8.18;;;5.10;99.90;;;;;;4890384;29;20533;-83
2021/12/14 05:55:51;;;;;;;14.40;8.43;;;5.10;99.90;;;;;;4886637;29;20521;-83
2021/12/14 05:58:21;;;;;;;16.20;10.13;;;5.10;99.90;;;;;;4889271;29;20288;-83
2021/12/14 06:00:55;;;;;;;14.10;9.45;;;5.10;99.90;;;;;;4889259;29;20040;-83
2021/12/14 06:03:27;;;;;;;13.15;9.23;;;5.10;99.90;;;;;;4904572;29;20040;-83
2021/12/14 06:05:55;;;;;;;12.02;7.40;;;5.10;99.90;;;;;;4891683;29;20127;-83
2021/12/14 06:08:27;;;;;;;15.80;8.65;;;5.10;99.90;;;;;;4885634;29;20151;-83
2021/12/14 06:11:01;;;;;;;10.52;8.40;;;5.10;99.90;;;;;;4904607;29;20080;-84
2021/12/14 06:13:39;;;;;;;11.98;6.88;;;5.10;99.90;;;;;;4888406;29;20064;-83
2021/12/14 06:16:19;;;;;;;10.93;7.05;;;5.10;99.90;;;;;;4889043;29;20045;-83
2021/12/14 06:18:46;;;;;;;11.68;7.88;;;5.10;99.90;;;;;;4903015;29;20518;-83
2021/12/14 06:21:34;;;;;;;14.23;7.00;;;5.10;99.90;;;;;;4901323;29;20058;-83
2021/12/14 06:24:06;;;;;;;12.05;6.95;;;5.10;99.90;;;;;;4905030;29;20503;-83
2021/12/14 06:26:42;;;;;;;17.10;6.97;;;5.10;99.90;;;;;;4900259;29;20067;-83
2021/12/14 06:29:19;;;;;;;10.80;6.22;;;5.10;99.90;;;;;;4905656;29;20376;-83
2021/12/14 06:31:47;;;;;;;8.63;5.90;;;5.10;99.90;;;;;;4903448;29;20124;-83
2021/12/14 06:34:25;;;;;;;13.25;6.80;;;5.10;99.90;;;;;;4904352;29;20558;-83
2021/12/14 06:37:19;;;;;;;16.75;6.03;;;5.00;99.90;;;;;;4887775;29;22368;-83
2021/12/14 06:40:21;;;;;;;12.27;6.43;;;5.00;99.90;;;;;;4887606;29;20123;-83
2021/12/14 06:42:58;;;;;;;10.80;5.88;;;5.00;99.90;;;;;;4857977;29;20056;-83
2021/12/14 06:45:35;;;;;;;8.20;6.22;;;5.00;99.90;;;;;;4892869;29;20052;-83
2021/12/14 06:48:20;;;;;;;8.82;6.95;;;5.00;99.90;;;;;;4887789;29;20049;-83
2021/12/14 06:50:50;;;;;;;12.25;6.68;;;5.00;99.90;;;;;;4889984;29;20136;-83
2021/12/14 06:53:48;;;;;;;11.60;7.72;;;5.00;99.90;;;;;;4893437;29;20055;-83
2021/12/14 06:56:32;;;;;;;11.80;5.95;;;5.00;99.90;;;;;;4883688;29;20064;-83
2021/12/14 06:59:21;;;;;;;10.65;6.97;;;4.90;99.90;;;;;;4891464;29;20055;-83
2021/12/14 07:02:08;;;;;;;15.90;7.82;;;4.90;99.90;;;;;;4891252;29;20052;-83
2021/12/14 07:05:01;;;;;;;13.00;8.00;;;4.90;99.90;;;;;;4875591;29;20083;-83
2021/12/14 07:07:32;;;;;;;;;;;4.90;99.90;;;;;;4898133;29;20566;-83
2021/12/14 07:10:07;;;;;;;13.20;7.25;;;4.90;99.90;;;;;;4898570;29;19932;-84
2021/12/14 07:12:36;;;;;;;12.88;6.88;;;4.90;99.90;;;;;;4882134;29;20056;-86
2021/12/14 07:15:26;;;;;;;10.98;6.30;;;4.90;99.90;;;;;;4879551;29;20048;-86
2021/12/14 07:18:03;;;;;;;10.82;5.57;;;4.90;99.90;;;;;;4879614;29;20048;-86
2021/12/14 07:20:44;;;;;;;9.02;5.30;;;4.90;99.90;;;;;;4882045;29;20613;-87
2021/12/14 07:23:26;;;;;;;12.02;6.22;;;4.90;99.90;;;;;;4877378;29;20060;-86
2021/12/14 07:26:04;;;;;;;7.25;6.00;;;4.90;99.90;;;;;;4879694;29;20112;-86
2021/12/14 07:28:40;;;;;;;8.50;5.15;;;4.90;99.90;;;;;;4878842;29;20053;-86
2021/12/14 07:31:23;;;;;;;12.68;5.93;;;4.90;99.90;;;;;;4878344;29;20067;-86
2021/12/14 07:33:56;;;;;;;14.57;6.38;;;4.90;99.90;;;;;;4880803;29;20055;-86
2021/12/14 07:36:30;;;;;;;11.13;6.47;;;4.90;99.90;;;;;;4881134;29;20056;-86
2021/12/14 07:39:07;;;;;;;12.18;6.88;;;4.90;99.90;;;;;;4878465;29;20048;-86
2021/12/14 07:41:36;;;;;;;8.80;5.32;;;4.90;99.90;;;;;;4880505;29;20136;-86
2021/12/14 07:44:22;;;;;;;9.10;6.72;;;4.90;99.90;;;;;;4892381;29;20044;-87
2021/12/14 07:47:07;;;;;;;16.30;8.73;;;5.00;99.90;;;;;;4894446;29;20051;-86
2021/12/14 07:49:40;;;;;;;9.80;6.57;;;5.00;99.90;;;;;;4876883;29;20139;-87
2021/12/14 07:52:09;;;;;;;9.32;6.35;;;5.00;99.90;;;;;;4881176;29;20507;-86
2021/12/14 07:54:43;;;;;;;11.63;7.28;;;5.00;99.90;;;;;;4878360;29;20151;-86
2021/12/14 07:57:14;;;;;;;11.43;4.88;;;5.00;99.90;;;;;;4881223;29;20052;-86
2021/12/14 07:59:46;;;;;;;8.57;4.07;;;5.00;99.90;;;;;;4878472;29;20067;-87
2021/12/14 08:02:27;;;;;;;8.52;3.63;;;5.10;99.90;;;;;;4881545;29;20044;-87
2021/12/14 08:04:59;;;;;;;6.40;3.65;;;5.10;99.90;;;;;;4881336;29;20573;-87
2021/12/14 08:07:43;;;;;;;5.43;3.08;;;5.10;99.90;;;;;;4877987;29;20055;-87
2021/12/14 08:10:15;;;;;;;5.57;4.85;;;5.10;99.90;;;;;;4880711;29;20045;-86
2021/12/14 08:12:52;;;;;;;7.38;3.22;;;5.10;99.90;;;;;;4895694;29;20060;-87
2021/12/14 08:15:40;;;;;;;4.97;2.95;;;5.10;99.90;;;;;;4897537;29;20056;-86
2021/12/14 08:18:12;;;;;;;13.30;3.50;;;5.10;99.90;;;;;;4889033;29;20052;-87
2021/12/14 08:21:02;;;;;;;10.25;3.65;;;5.10;99.90;;;;;;4882407;29;20057;-86
2021/12/14 08:23:40;;;;;;;5.93;3.85;;;5.10;99.90;;;;;;4878015;29;20041;-86
2021/12/14 08:26:21;;;;;;;10.90;3.70;;;5.10;99.90;;;;;;4879787;29;20059;-86
2021/12/14 08:28:56;;;;;;;9.35;3.70;;;5.10;99.90;;;;;;4878592;29;20049;-84
2021/12/14 08:31:30;;;;;;;6.28;3.60;;;5.10;99.90;;;;;;4880519;29;21345;-84
2021/12/14 08:34:01;;;;;;;8.00;4.35;;;5.10;99.90;;;;;;4877021;29;20048;-84
2021/12/14 08:37:08;;;;;;;7.43;4.00;;;5.10;99.90;;;;;;4879245;29;20052;-84
2021/12/14 08:39:46;;;;;;;12.23;4.22;;;5.10;99.90;;;;;;4836375;29;20045;-84
2021/12/14 08:42:27;;;;;;;10.10;3.72;;;5.10;99.90;;;;;;4878628;29;20124;-84
2021/12/14 08:44:57;;;;;;;11.30;3.85;;;5.10;99.90;;;;;;4874590;29;20041;-84
2021/12/14 08:47:33;;;;;;;6.57;3.58;;;5.10;99.90;;;;;;4879964;29;20654;-84
2021/12/14 08:50:06;;;;;;;9.98;3.33;;;5.10;99.90;;;;;;4879071;29;21415;-84
2021/12/14 08:52:34;;;;;;;4.60;2.90;;;5.10;99.90;;;;;;4879282;29;20048;-84
2021/12/14 08:55:04;;;;;;;8.50;2.97;;;5.10;99.90;;;;;;4877799;29;20085;-84
2021/12/14 08:57:32;;;;;;;10.65;3.42;;;5.10;99.90;;;;;;4880070;29;20052;-84
2021/12/14 09:00:10;;;;;;;11.18;3.00;;;5.10;99.90;;;;;;4876452;29;20052;-84
2021/12/14 09:02:38;;;;;;;6.78;3.50;;;5.10;99.90;;;;;;4891425;29;20044;-84
2021/12/14 09:05:13;;;;;;;11.23;3.13;;;5.10;99.90;;;;;;4876355;29;21880;-84
2021/12/14 09:07:42;;;;;;;8.63;3.03;;;5.00;99.90;;;;;;4893610;29;20070;-84
2021/12/14 09:10:15;;;;;;;8.18;2.80;;;5.10;99.90;;;;;;4873277;29;20049;-84
2021/12/14 09:12:44;;;;;;;7.53;3.22;;;5.10;99.90;;;;;;4877251;29;20505;-84
2021/12/14 09:15:20;;;;;;;7.18;3.20;;;5.10;99.90;;;;;;4890621;29;20084;-84
2021/12/14 09:17:48;;;;;;;11.98;2.63;;;5.10;99.90;;;;;;4890352;29;20048;-84
2021/12/14 09:20:32;;;;;;;3.13;2.80;;;5.10;99.90;;;;;;4874799;29;20052;-84
2021/12/14 09:23:11;;;;;;;8.98;4.75;;;5.10;99.90;;;;;;4875375;29;20155;-84
2021/12/14 09:25:39;;;;;;;7.38;2.40;;;5.10;99.90;;;;;;4875430;29;20791;-84
2021/12/14 09:28:07;;;;;;;12.38;3.40;;;5.10;99.90;;;;;;4874741;29;20143;-84
2021/12/14 09:30:38;;;;;;;5.88;2.03;;;5.10;99.90;;;;;;4874872;29;20747;-84
2021/12/14 09:33:06;;;;;;;4.78;2.78;;;5.10;99.90;;;;;;4875560;29;21042;-84
2021/12/14 09:35:35;;;;;;;9.35;3.05;;;5.10;99.90;;;;;;4875735;29;20612;-84
2021/12/14 09:38:07;;;;;;;8.27;3.43;;;5.10;99.90;;;;;;4859199;29;20063;-86
2021/12/14 09:40:51;;;;;;;9.80;2.97;;;5.10;99.90;;;;;;4875739;29;20060;-86
2021/12/14 09:43:20;;;;;;;6.35;3.13;;;5.00;99.90;;;;;;4874404;29;20053;-86
2021/12/14 09:45:52;;;;;;;5.80;2.45;;;5.00;99.90;;;;;;4874665;29;20159;-86
2021/12/14 09:48:27;;;;;;;3.63;2.67;;;5.10;99.90;;;;;;4872692;29;20178;-86
2021/12/14 09:50:57;;;;;;;4.85;2.40;;;5.00;99.90;;;;;;4876990;29;20183;-86
2021/12/14 09:53:27;;;;;;;7.20;3.17;;;5.00;99.90;;;;;;4875097;29;20052;-87
2021/12/14 09:55:57;;;;;;;5.35;2.03;;;5.00;99.90;;;;;;4875228;29;20382;-86
2021/12/14 09:58:37;;;;;;;8.70;2.05;;;5.00;99.90;;;;;;4874551;29;20506;-84
2021/12/14 10:01:28;;;;;;;5.68;2.33;;;5.00;99.90;;;;;;4874315;29;20526;-84
2021/12/14 10:03:59;;;;;;;6.15;2.10;;;5.00;99.90;;;;;;4874947;29;20053;-84
2021/12/14 10:06:30;;;;;;;12.00;3.05;;;5.00;99.90;;;;;;4873862;29;21104;-84
2021/12/14 10:09:03;;;;;;;4.47;2.10;;;5.10;99.90;;;;;;4875573;29;20684;-84
2021/12/14 10:14:35;;;;;;;10.65;2.17;;;5.10;99.90;;;;;;4868503;29;20059;-84
2021/12/14 10:17:06;;;;;;;3.47;2.20;;;5.10;99.90;;;;;;4873142;29;21407;-84
2021/12/14 10:19:34;;;;;;;12.48;5.40;;;5.10;99.90;;;;;;4876400;29;20116;-84
2021/12/14 10:22:09;;;;;;;5.63;2.10;;;5.10;99.90;;;;;;4874222;29;20052;-84
2021/12/14 10:24:36;;;;;;;7.28;2.45;;;5.10;99.90;;;;;;4875626;29;20052;-84
2021/12/14 10:27:16;;;;;;;7.65;2.05;;;5.10;99.90;;;;;;4875164;29;20056;-84
2021/12/14 10:29:43;;;;;;;6.75;2.85;;;5.10;99.90;;;;;;4874598;29;20048;-84
2021/12/14 10:32:24;;;;;;;12.02;2.38;;;5.20;99.90;;;;;;4876079;29;21332;-84
2021/12/14 10:34:53;;;;;;;;;;;5.20;99.90;;;;;;4875301;29;20060;-84
2021/12/14 10:37:37;;;;;;;10.18;3.70;;;5.20;99.90;;;;;;4867903;29;19939;-84
2021/12/14 10:45:27;;;;;;;9.68;2.13;;;5.30;99.90;;;;;;4874392;29;20053;-86
2021/12/14 10:47:56;;;;;;;6.75;2.60;;;5.30;99.90;;;;;;4876216;29;20061;-87
2021/12/14 10:50:31;;;;;;;9.48;3.97;;;5.30;99.90;;;;;;4874245;29;20053;-87
2021/12/14 10:53:00;;;;;;;13.70;2.80;;;5.30;99.90;;;;;;4872434;29;20060;-86
2021/12/14 10:55:35;;;;;;;10.50;2.58;;;5.40;99.90;;;;;;4875476;29;20082;-86
2021/12/14 10:58:06;;;;;;;8.98;3.60;;;5.40;99.90;;;;;;4875296;29;20059;-87
2021/12/14 11:00:43;;;;;;;9.60;3.00;;;5.40;99.90;;;;;;4861595;29;20493;-87
2021/12/14 11:03:16;;;;;;;6.78;2.55;;;5.40;99.90;;;;;;4889386;29;21056;-87
2021/12/14 11:05:48;;;;;;;7.75;3.03;;;5.50;99.90;;;;;;4874909;29;20083;-87
2021/12/14 11:08:34;;;;;;;6.57;3.33;;;5.50;99.90;;;;;;4875807;29;20060;-87
2021/12/14 11:11:10;;;;;;;10.15;3.80;;;5.50;99.90;;;;;;4871884;29;20144;-87
2021/12/14 11:13:41;;;;;;;10.38;2.90;;;5.60;99.90;;;;;;4874084;29;20180;-87
2021/12/14 11:16:17;;;;;;;9.93;2.35;;;5.60;99.90;;;;;;4873850;29;20063;-87
2021/12/14 11:18:47;;;;;;;12.63;3.47;;;5.60;99.90;;;;;;4875651;29;20052;-86
2021/12/14 11:21:18;;;;;;;7.15;1.98;;;5.60;99.90;;;;;;4873259;29;20036;-87
2021/12/14 11:23:48;;;;;;;3.90;2.22;;;5.60;99.90;;;;;;4875190;29;20087;-87
2021/12/14 11:26:27;;;;;;;7.10;2.33;;;5.50;99.90;;;;;;4876992;29;20059;-87
2021/12/14 11:29:00;;;;;;;4.97;2.45;;;5.60;99.90;;;;;;4891544;29;20056;-84
2021/12/14 11:31:34;;;;;;;9.45;2.50;;;5.60;99.90;;;;;;4878496;29;20064;-84
2021/12/14 11:34:05;;;;;;;9.05;4.07;;;5.60;99.90;;;;;;4879057;29;20510;-84
2021/12/14 11:36:35;;;;;;;7.30;1.73;;;5.50;99.90;;;;;;4877956;29;20071;-87
2021/12/14 11:39:24;;;;;;;5.40;2.15;;;5.50;99.90;;;;;;4876016;29;20136;-87
2021/12/14 11:42:04;;;;;;;5.47;2.85;;;5.50;99.90;;;;;;4878357;29;20060;-87
2021/12/14 11:44:31;;;;;;;;;;;5.40;99.90;;;;;;4878516;29;20060;-87
2021/12/14 11:46:58;;;;;;;9.60;3.22;;;5.40;99.90;;;;;;4877710;29;19939;-87
2021/12/14 11:49:45;;;;;;;7.25;2.30;;;5.40;99.90;;;;;;4875911;29;20060;-87
2021/12/14 11:52:13;;;;;;;3.10;2.17;;;5.40;99.90;;;;;;4877836;29;20045;-87
2021/12/14 11:54:45;;;;;;;5.75;1.90;;;5.40;99.90;;;;;;4877714;29;20056;-87
2021/12/14 11:57:16;;;;;;;11.38;2.15;;;5.50;99.90;;;;;;4875744;29;20063;-87
2021/12/14 11:59:43;;;;;;;;;;;5.50;99.90;;;;;;4877372;29;20414;-87
2021/12/14 12:02:11;;;;;;;6.90;1.73;;;5.50;99.90;;;;;;4877137;29;20149;-87
2021/12/14 12:04:43;;;;;;;6.80;1.92;;;5.50;99.90;;;;;;4876283;29;20059;-87
2021/12/14 12:09:51;;;;;;;4.13;1.98;;;5.50;99.90;;;;;;4876289;29;20056;-87
2021/12/14 12:12:33;;;;;;;4.28;2.30;;;5.50;99.90;;;;;;4877301;29;20525;-87
2021/12/14 12:15:08;;;;;;;3.40;1.40;;;5.50;99.90;;;;;;4892104;29;20057;-87
2021/12/14 12:17:50;;;;;;;6.07;1.85;;;5.50;99.90;;;;;;4891567;29;20056;-87
2021/12/14 12:20:33;;;;;;;5.15;1.45;;;5.50;99.90;;;;;;4877116;29;20403;-87
2021/12/14 12:23:09;;;;;;;8.45;2.20;;;5.50;99.90;;;;;;4876201;29;20054;-87
2021/12/14 12:25:40;;;;;;;3.13;1.08;;;5.50;99.90;;;;;;4876009;29;20061;-87
2021/12/14 12:28:38;;;;;;;5.47;1.38;;;5.50;99.90;;;;;;4876855;29;20071;-87
2021/12/14 12:31:11;;;;;;;7.82;1.95;;;5.50;99.90;;;;;;4889387;29;20055;-87
2021/12/14 12:33:48;;;;;;;2.67;1.48;;;5.50;99.90;;;;;;4874668;29;20064;-87
2021/12/14 12:36:35;;;;;;;3.60;1.35;;;5.40;99.90;;;;;;4875093;29;20057;-87
2021/12/14 12:39:09;;;;;;;7.88;1.45;;;5.40;99.90;;;;;;4878106;29;20712;-87
2021/12/14 12:41:49;;;;;;;5.38;1.65;;;5.30;99.90;;;;;;4890308;29;20055;-87
2021/12/14 12:44:25;;;;;;;3.15;1.65;;;5.30;99.90;;;;;;4890810;29;20057;-87
2021/12/14 12:46:57;;;;;;;7.80;1.70;;;5.20;99.90;;;;;;4876836;29;20152;-87
2021/12/14 12:49:33;;;;;;;3.83;1.77;;;5.20;99.90;;;;;;4876485;29;20055;-87
2021/12/14 12:52:28;;;;;;;4.60;1.50;;;5.10;99.90;;;;;;4874395;29;20071;-87
2021/12/14 12:55:10;;;;;;;5.57;1.42;;;5.10;99.90;;;;;;4876570;29;20048;-87
2021/12/14 12:58:12;;;;;;;4.60;1.27;;;5.10;99.90;;;;;;4873897;29;20056;-87
2021/12/14 13:00:46;;;;;;;3.22;1.50;;;5.00;99.90;;;;;;4876085;29;20063;-87
2021/12/14 13:03:38;;;;;;;4.88;1.75;;;4.90;99.90;;;;;;4876144;29;20043;-87
2021/12/14 13:06:21;;;;;;;3.63;1.70;;;4.90;99.90;;;;;;4873596;29;20045;-87
2021/12/14 13:08:58;;;;;;;2.72;1.65;;;4.90;99.90;;;;;;4877635;29;20143;-87
2021/12/14 13:11:32;;;;;;;5.43;1.98;;;4.90;99.90;;;;;;4875905;29;20051;-87
2021/12/14 13:14:02;;;;;;;5.80;2.53;;;4.80;99.90;;;;;;4874255;29;20048;-86
2021/12/14 13:16:35;;;;;;;8.13;2.40;;;4.80;99.90;;;;;;4876331;29;20760;-87
2021/12/14 13:19:04;;;;;;;8.82;2.10;;;4.80;99.90;;;;;;4872661;29;20063;-87
2021/12/14 13:21:51;;;;;;;7.50;1.65;;;4.80;99.90;;;;;;4876423;29;20063;-87
2021/12/14 13:24:35;;;;;;;5.22;2.55;;;4.80;99.90;;;;;;4874233;29;20052;-87
2021/12/14 13:27:24;;;;;;;8.65;1.80;;;4.70;99.90;;;;;;4875277;29;20049;-87
2021/12/14 13:30:05;;;;;;;6.68;1.67;;;4.70;99.90;;;;;;4872656;29;20147;-87
2021/12/14 13:32:39;;;;;;;7.80;1.83;;;4.70;99.90;;;;;;4891059;29;20056;-86
2021/12/14 13:35:15;;;;;;;5.82;2.45;;;4.70;99.90;;;;;;4876041;29;20053;-87
2021/12/14 13:37:44;;;;;;;3.40;1.17;;;4.70;99.90;;;;;;4895503;29;20155;-87
2021/12/14 13:40:32;;;;;;;7.07;1.70;;;4.70;99.90;;;;;;4876973;29;20091;-87
2021/12/14 13:43:18;;;;;;;3.63;1.80;;;4.70;99.90;;;;;;4878734;29;20055;-84
2021/12/14 13:45:59;;;;;;;6.95;1.73;;;4.70;99.90;;;;;;4878300;29;20040;-84
2021/12/14 13:48:30;;;;;;;6.50;2.10;;;4.60;99.90;;;;;;4874792;29;20049;-84
2021/12/14 13:51:02;;;;;;;6.97;1.73;;;4.60;99.90;;;;;;4879472;29;20040;-84
2021/12/14 13:53:30;;;;;;;6.78;1.75;;;4.60;99.90;;;;;;4894344;29;20052;-85
2021/12/14 13:56:14;;;;;;;7.28;1.77;;;4.60;99.90;;;;;;4874901;29;20446;-84
2021/12/14 13:58:43;;;;;;;12.00;2.15;;;4.60;99.90;;;;;;4879519;29;20060;-84
2021/12/14 14:01:18;;;;;;;10.52;2.58;;;4.60;99.90;;;;;;4877172;29;20123;-84
2021/12/14 14:03:48;;;;;;;3.15;2.70;;;4.70;99.90;;;;;;4879109;29;20060;-84
2021/12/14 14:06:19;;;;;;;4.63;1.92;;;4.70;99.90;;;;;;4878296;29;20127;-84
2021/12/14 14:09:09;;;;;;;6.65;1.60;;;4.70;99.90;;;;;;4879167;29;20056;-84
2021/12/14 14:11:40;;;;;;;6.60;2.17;;;4.70;99.90;;;;;;4879554;29;20145;-84
2021/12/14 14:14:13;;;;;;;6.20;1.85;;;4.80;99.90;;;;;;4877071;29;20055;-84
2021/12/14 14:16:51;;;;;;;26.83;3.58;;;4.80;99.90;;;;;;4877323;29;20072;-84